sensor_id;sensor_type;location;lat;lon;timestamp;P1;durP1;ratioP1;P2;durP2;ratioP2
57389;SDS011;43217;52.694;6.214;2023-05-10T00:00:33;18.42;;;16.52;;
57389;SDS011;43217;52.694;6.214;2023-05-10T00:02:59;18.08;;;16.17;;
57389;SDS011;43217;52.694;6.214;2023-05-10T00:05:25;17.52;;;15.73;;
57389;SDS011;43217;52.694;6.214;2023-05-10T00:07:50;18.10;;;16.15;;
57389;SDS011;43217;52.694;6.214;2023-05-10T00:10:16;17.00;;;15.20;;
57389;SDS011;43217;52.694;6.214;2023-05-10T00:12:42;16.90;;;15.10;;
57389;SDS011;43217;52.694;6.214;2023-05-10T00:15:08;17.77;;;15.38;;
57389;SDS011;43217;52.694;6.214;2023-05-10T00:17:34;15.35;;;13.70;;
57389;SDS011;43217;52.694;6.214;2023-05-10T00:20:00;16.02;;;13.88;;
57389;SDS011;43217;52.694;6.214;2023-05-10T00:22:26;16.10;;;14.13;;
57389;SDS011;43217;52.694;6.214;2023-05-10T00:24:51;17.27;;;14.23;;
57389;SDS011;43217;52.694;6.214;2023-05-10T00:27:17;13.77;;;12.40;;
57389;SDS011;43217;52.694;6.214;2023-05-10T00:29:42;15.02;;;13.40;;
57389;SDS011;43217;52.694;6.214;2023-05-10T00:32:08;13.38;;;11.98;;
57389;SDS011;43217;52.694;6.214;2023-05-10T00:34:34;13.45;;;12.00;;
57389;SDS011;43217;52.694;6.214;2023-05-10T00:36:59;12.88;;;11.57;;
57389;SDS011;43217;52.694;6.214;2023-05-10T00:39:25;14.15;;;12.68;;
57389;SDS011;43217;52.694;6.214;2023-05-10T00:41:51;12.55;;;11.25;;
57389;SDS011;43217;52.694;6.214;2023-05-10T00:44:30;12.55;;;10.98;;
57389;SDS011;43217;52.694;6.214;2023-05-10T00:46:56;10.13;;;9.20;;
57389;SDS011;43217;52.694;6.214;2023-05-10T00:49:28;10.48;;;9.38;;
57389;SDS011;43217;52.694;6.214;2023-05-10T00:51:54;10.75;;;9.70;;
57389;SDS011;43217;52.694;6.214;2023-05-10T00:54:26;10.07;;;9.18;;
57389;SDS011;43217;52.694;6.214;2023-05-10T00:56:51;10.55;;;9.45;;
57389;SDS011;43217;52.694;6.214;2023-05-10T00:59:17;10.75;;;9.75;;
57389;SDS011;43217;52.694;6.214;2023-05-10T01:01:47;10.05;;;9.15;;
57389;SDS011;43217;52.694;6.214;2023-05-10T01:04:13;10.95;;;9.40;;
57389;SDS011;43217;52.694;6.214;2023-05-10T01:06:39;10.38;;;9.38;;
57389;SDS011;43217;52.694;6.214;2023-05-10T01:09:06;9.90;;;8.93;;
57389;SDS011;43217;52.694;6.214;2023-05-10T01:11:35;9.98;;;8.98;;
57389;SDS011;43217;52.694;6.214;2023-05-10T01:14:03;9.00;;;8.20;;
57389;SDS011;43217;52.694;6.214;2023-05-10T01:16:31;8.70;;;7.90;;
57389;SDS011;43217;52.694;6.214;2023-05-10T01:19:01;8.75;;;7.95;;
57389;SDS011;43217;52.694;6.214;2023-05-10T01:21:33;8.52;;;7.70;;
57389;SDS011;43217;52.694;6.214;2023-05-10T01:32:15;7.53;;;6.70;;
57389;SDS011;43217;52.694;6.214;2023-05-10T01:34:54;7.70;;;7.00;;
57389;SDS011;43217;52.694;6.214;2023-05-10T01:37:31;7.85;;;6.55;;
57389;SDS011;43217;52.694;6.214;2023-05-10T01:40:30;7.50;;;6.72;;
57389;SDS011;43217;52.694;6.214;2023-05-10T01:43:03;7.68;;;6.93;;
57389;SDS011;43217;52.694;6.214;2023-05-10T01:48:26;8.07;;;7.38;;
57389;SDS011;43217;52.694;6.214;2023-05-10T01:53:20;9.93;;;7.28;;
57389;SDS011;43217;52.694;6.214;2023-05-10T01:55:48;7.75;;;7.05;;
57389;SDS011;43217;52.694;6.214;2023-05-10T01:58:20;8.13;;;7.20;;
57389;SDS011;43217;52.694;6.214;2023-05-10T02:00:50;7.97;;;7.20;;
57389;SDS011;43217;52.694;6.214;2023-05-10T02:03:17;8.05;;;7.25;;
57389;SDS011;43217;52.694;6.214;2023-05-10T02:05:47;8.68;;;7.85;;
57389;SDS011;43217;52.694;6.214;2023-05-10T02:08:14;10.52;;;7.72;;
57389;SDS011;43217;52.694;6.214;2023-05-10T02:10:42;9.65;;;8.02;;
57389;SDS011;43217;52.694;6.214;2023-05-10T02:15:36;8.48;;;7.15;;
57389;SDS011;43217;52.694;6.214;2023-05-10T02:18:03;9.02;;;7.22;;
57389;SDS011;43217;52.694;6.214;2023-05-10T02:20:31;8.88;;;6.38;;
57389;SDS011;43217;52.694;6.214;2023-05-10T02:22:57;7.55;;;6.57;;
57389;SDS011;43217;52.694;6.214;2023-05-10T02:25:24;8.20;;;7.38;;
57389;SDS011;43217;52.694;6.214;2023-05-10T02:27:52;9.27;;;7.40;;
57389;SDS011;43217;52.694;6.214;2023-05-10T02:30:22;9.07;;;8.15;;
57389;SDS011;43217;52.694;6.214;2023-05-10T02:32:48;9.00;;;7.80;;
57389;SDS011;43217;52.694;6.214;2023-05-10T02:37:41;8.98;;;8.07;;
57389;SDS011;43217;52.694;6.214;2023-05-10T02:40:09;9.27;;;8.13;;
57389;SDS011;43217;52.694;6.214;2023-05-10T02:42:37;9.70;;;8.48;;
57389;SDS011;43217;52.694;6.214;2023-05-10T02:47:33;9.70;;;8.80;;
57389;SDS011;43217;52.694;6.214;2023-05-10T02:49:59;11.02;;;9.15;;
57389;SDS011;43217;52.694;6.214;2023-05-10T02:52:26;9.52;;;8.63;;
57389;SDS011;43217;52.694;6.214;2023-05-10T02:54:56;10.55;;;9.45;;
57389;SDS011;43217;52.694;6.214;2023-05-10T02:57:26;11.15;;;9.95;;
57389;SDS011;43217;52.694;6.214;2023-05-10T02:59:58;10.85;;;9.75;;
57389;SDS011;43217;52.694;6.214;2023-05-10T03:02:25;10.40;;;9.40;;
57389;SDS011;43217;52.694;6.214;2023-05-10T03:04:51;10.60;;;9.70;;
57389;SDS011;43217;52.694;6.214;2023-05-10T03:07:16;10.82;;;9.68;;
57389;SDS011;43217;52.694;6.214;2023-05-10T03:09:46;10.32;;;9.25;;
57389;SDS011;43217;52.694;6.214;2023-05-10T03:15:17;11.18;;;10.15;;
57389;SDS011;43217;52.694;6.214;2023-05-10T03:20:59;8.90;;;8.10;;
57389;SDS011;43217;52.694;6.214;2023-05-10T03:23:33;10.02;;;9.02;;
57389;SDS011;43217;52.694;6.214;2023-05-10T03:26:05;9.50;;;8.52;;
57389;SDS011;43217;52.694;6.214;2023-05-10T03:28:33;9.93;;;8.98;;
57389;SDS011;43217;52.694;6.214;2023-05-10T03:31:00;10.70;;;8.93;;
57389;SDS011;43217;52.694;6.214;2023-05-10T03:33:27;9.68;;;8.68;;
57389;SDS011;43217;52.694;6.214;2023-05-10T03:35:53;9.02;;;8.18;;
57389;SDS011;43217;52.694;6.214;2023-05-10T03:38:19;9.32;;;8.43;;
57389;SDS011;43217;52.694;6.214;2023-05-10T03:40:44;9.95;;;8.95;;
57389;SDS011;43217;52.694;6.214;2023-05-10T03:43:10;11.18;;;8.77;;
57389;SDS011;43217;52.694;6.214;2023-05-10T03:45:36;10.10;;;8.63;;
57389;SDS011;43217;52.694;6.214;2023-05-10T03:48:01;9.10;;;8.20;;
57389;SDS011;43217;52.694;6.214;2023-05-10T03:50:27;8.57;;;7.70;;
57389;SDS011;43217;52.694;6.214;2023-05-10T03:52:53;9.05;;;8.00;;
57389;SDS011;43217;52.694;6.214;2023-05-10T03:55:18;8.90;;;7.60;;
57389;SDS011;43217;52.694;6.214;2023-05-10T03:57:45;6.55;;;5.95;;
57389;SDS011;43217;52.694;6.214;2023-05-10T04:00:10;7.45;;;6.75;;
57389;SDS011;43217;52.694;6.214;2023-05-10T04:02:36;7.15;;;6.45;;
57389;SDS011;43217;52.694;6.214;2023-05-10T04:05:02;7.32;;;6.63;;
57389;SDS011;43217;52.694;6.214;2023-05-10T04:07:28;8.55;;;7.30;;
57389;SDS011;43217;52.694;6.214;2023-05-10T04:09:54;8.73;;;7.80;;
57389;SDS011;43217;52.694;6.214;2023-05-10T04:12:20;10.02;;;8.57;;
57389;SDS011;43217;52.694;6.214;2023-05-10T04:14:45;11.82;;;8.90;;
57389;SDS011;43217;52.694;6.214;2023-05-10T04:17:11;10.00;;;8.25;;
57389;SDS011;43217;52.694;6.214;2023-05-10T04:19:37;9.40;;;8.13;;
57389;SDS011;43217;52.694;6.214;2023-05-10T04:22:03;8.95;;;7.50;;
57389;SDS011;43217;52.694;6.214;2023-05-10T04:24:28;8.18;;;6.80;;
57389;SDS011;43217;52.694;6.214;2023-05-10T04:26:54;10.55;;;7.68;;
57389;SDS011;43217;52.694;6.214;2023-05-10T04:29:20;8.50;;;7.70;;
57389;SDS011;43217;52.694;6.214;2023-05-10T04:31:46;8.55;;;7.38;;
57389;SDS011;43217;52.694;6.214;2023-05-10T04:34:11;9.43;;;7.75;;
57389;SDS011;43217;52.694;6.214;2023-05-10T04:36:39;10.07;;;8.27;;
57389;SDS011;43217;52.694;6.214;2023-05-10T04:39:05;9.77;;;8.13;;
57389;SDS011;43217;52.694;6.214;2023-05-10T04:41:31;11.38;;;8.05;;
57389;SDS011;43217;52.694;6.214;2023-05-10T04:46:25;10.43;;;8.48;;
57389;SDS011;43217;52.694;6.214;2023-05-10T04:48:51;11.43;;;8.68;;
57389;SDS011;43217;52.694;6.214;2023-05-10T04:51:16;10.45;;;9.25;;
57389;SDS011;43217;52.694;6.214;2023-05-10T04:53:42;11.07;;;9.02;;
57389;SDS011;43217;52.694;6.214;2023-05-10T04:56:07;10.45;;;8.70;;
57389;SDS011;43217;52.694;6.214;2023-05-10T04:58:33;12.65;;;9.52;;
57389;SDS011;43217;52.694;6.214;2023-05-10T05:01:05;11.52;;;9.45;;
57389;SDS011;43217;52.694;6.214;2023-05-10T05:03:32;12.20;;;9.23;;
57389;SDS011;43217;52.694;6.214;2023-05-10T05:05:58;13.40;;;10.23;;
57389;SDS011;43217;52.694;6.214;2023-05-10T05:08:24;10.77;;;9.23;;
57389;SDS011;43217;52.694;6.214;2023-05-10T05:10:49;10.57;;;9.07;;
57389;SDS011;43217;52.694;6.214;2023-05-10T05:13:15;11.32;;;9.48;;
57389;SDS011;43217;52.694;6.214;2023-05-10T05:15:41;11.90;;;9.38;;
57389;SDS011;43217;52.694;6.214;2023-05-10T05:18:06;13.07;;;10.25;;
57389;SDS011;43217;52.694;6.214;2023-05-10T05:20:32;14.88;;;9.98;;
57389;SDS011;43217;52.694;6.214;2023-05-10T05:23:01;12.35;;;10.07;;
57389;SDS011;43217;52.694;6.214;2023-05-10T05:25:27;11.15;;;9.90;;
57389;SDS011;43217;52.694;6.214;2023-05-10T05:27:55;14.25;;;10.07;;
57389;SDS011;43217;52.694;6.214;2023-05-10T05:32:46;11.55;;;10.00;;
57389;SDS011;43217;52.694;6.214;2023-05-10T05:35:14;13.35;;;10.32;;
57389;SDS011;43217;52.694;6.214;2023-05-10T05:37:40;14.00;;;10.20;;
57389;SDS011;43217;52.694;6.214;2023-05-10T05:40:05;13.88;;;10.68;;
57389;SDS011;43217;52.694;6.214;2023-05-10T05:42:32;13.30;;;9.82;;
57389;SDS011;43217;52.694;6.214;2023-05-10T05:44:57;14.93;;;10.18;;
57389;SDS011;43217;52.694;6.214;2023-05-10T05:47:23;13.23;;;10.23;;
57389;SDS011;43217;52.694;6.214;2023-05-10T05:49:49;17.23;;;10.30;;
57389;SDS011;43217;52.694;6.214;2023-05-10T05:52:14;14.00;;;9.82;;
57389;SDS011;43217;52.694;6.214;2023-05-10T05:54:40;16.05;;;10.43;;
57389;SDS011;43217;52.694;6.214;2023-05-10T05:57:06;14.85;;;10.70;;
57389;SDS011;43217;52.694;6.214;2023-05-10T05:59:32;15.65;;;10.30;;
57389;SDS011;43217;52.694;6.214;2023-05-10T06:01:58;14.82;;;10.63;;
57389;SDS011;43217;52.694;6.214;2023-05-10T06:04:23;14.27;;;10.07;;
57389;SDS011;43217;52.694;6.214;2023-05-10T06:06:49;15.02;;;10.10;;
57389;SDS011;43217;52.694;6.214;2023-05-10T06:09:14;13.63;;;10.40;;
57389;SDS011;43217;52.694;6.214;2023-05-10T06:11:40;13.32;;;10.52;;
57389;SDS011;43217;52.694;6.214;2023-05-10T06:14:06;14.70;;;10.65;;
57389;SDS011;43217;52.694;6.214;2023-05-10T06:16:33;18.63;;;10.82;;
57389;SDS011;43217;52.694;6.214;2023-05-10T06:18:59;14.30;;;10.43;;
57389;SDS011;43217;52.694;6.214;2023-05-10T06:21:25;15.60;;;10.63;;
57389;SDS011;43217;52.694;6.214;2023-05-10T06:23:51;15.40;;;10.98;;
57389;SDS011;43217;52.694;6.214;2023-05-10T06:26:16;13.85;;;10.40;;
57389;SDS011;43217;52.694;6.214;2023-05-10T06:28:42;14.52;;;10.45;;
57389;SDS011;43217;52.694;6.214;2023-05-10T06:31:08;16.42;;;10.65;;
57389;SDS011;43217;52.694;6.214;2023-05-10T06:33:33;17.08;;;11.57;;
57389;SDS011;43217;52.694;6.214;2023-05-10T06:35:59;15.70;;;10.80;;
57389;SDS011;43217;52.694;6.214;2023-05-10T06:38:25;14.57;;;10.90;;
57389;SDS011;43217;52.694;6.214;2023-05-10T06:40:51;13.70;;;9.90;;
57389;SDS011;43217;52.694;6.214;2023-05-10T06:43:17;15.93;;;10.18;;
57389;SDS011;43217;52.694;6.214;2023-05-10T06:45:42;13.48;;;10.93;;
57389;SDS011;43217;52.694;6.214;2023-05-10T06:48:08;12.65;;;10.20;;
57389;SDS011;43217;52.694;6.214;2023-05-10T06:50:33;13.43;;;10.02;;
57389;SDS011;43217;52.694;6.214;2023-05-10T06:53:00;13.90;;;10.35;;
57389;SDS011;43217;52.694;6.214;2023-05-10T06:55:29;14.73;;;10.52;;
57389;SDS011;43217;52.694;6.214;2023-05-10T06:57:55;15.50;;;10.77;;
57389;SDS011;43217;52.694;6.214;2023-05-10T07:00:20;13.82;;;10.07;;
57389;SDS011;43217;52.694;6.214;2023-05-10T07:02:46;15.00;;;10.80;;
57389;SDS011;43217;52.694;6.214;2023-05-10T07:05:12;15.40;;;10.35;;
57389;SDS011;43217;52.694;6.214;2023-05-10T07:10:08;14.55;;;9.93;;
57389;SDS011;43217;52.694;6.214;2023-05-10T07:12:34;12.93;;;9.02;;
57389;SDS011;43217;52.694;6.214;2023-05-10T07:14:59;12.85;;;8.77;;
57389;SDS011;43217;52.694;6.214;2023-05-10T07:17:25;11.52;;;8.73;;
57389;SDS011;43217;52.694;6.214;2023-05-10T07:19:51;11.40;;;8.40;;
57389;SDS011;43217;52.694;6.214;2023-05-10T07:22:16;11.20;;;8.52;;
57389;SDS011;43217;52.694;6.214;2023-05-10T07:24:42;14.25;;;8.57;;
57389;SDS011;43217;52.694;6.214;2023-05-10T07:27:08;12.45;;;9.23;;
57389;SDS011;43217;52.694;6.214;2023-05-10T07:29:34;10.23;;;7.97;;
57389;SDS011;43217;52.694;6.214;2023-05-10T07:32:00;10.38;;;8.05;;
57389;SDS011;43217;52.694;6.214;2023-05-10T07:34:26;6.53;;;5.85;;
57389;SDS011;43217;52.694;6.214;2023-05-10T07:36:53;8.02;;;5.85;;
57389;SDS011;43217;52.694;6.214;2023-05-10T07:39:18;5.53;;;4.90;;
57389;SDS011;43217;52.694;6.214;2023-05-10T07:41:45;5.50;;;4.73;;
57389;SDS011;43217;52.694;6.214;2023-05-10T07:44:11;5.57;;;4.70;;
57389;SDS011;43217;52.694;6.214;2023-05-10T07:46:36;5.15;;;4.65;;
57389;SDS011;43217;52.694;6.214;2023-05-10T07:49:02;5.20;;;4.30;;
57389;SDS011;43217;52.694;6.214;2023-05-10T07:51:29;4.60;;;4.10;;
57389;SDS011;43217;52.694;6.214;2023-05-10T07:53:54;4.28;;;3.88;;
57389;SDS011;43217;52.694;6.214;2023-05-10T07:56:26;3.92;;;3.63;;
57389;SDS011;43217;52.694;6.214;2023-05-10T07:59:00;3.90;;;3.50;;
57389;SDS011;43217;52.694;6.214;2023-05-10T08:01:30;3.85;;;3.42;;
57389;SDS011;43217;52.694;6.214;2023-05-10T08:04:00;3.55;;;3.17;;
57389;SDS011;43217;52.694;6.214;2023-05-10T08:06:26;3.65;;;3.35;;
57389;SDS011;43217;52.694;6.214;2023-05-10T08:08:55;4.10;;;3.70;;
57389;SDS011;43217;52.694;6.214;2023-05-10T08:11:20;4.47;;;4.07;;
57389;SDS011;43217;52.694;6.214;2023-05-10T08:13:47;4.70;;;4.15;;
57389;SDS011;43217;52.694;6.214;2023-05-10T08:16:14;5.53;;;4.82;;
57389;SDS011;43217;52.694;6.214;2023-05-10T08:18:40;6.43;;;5.70;;
57389;SDS011;43217;52.694;6.214;2023-05-10T08:21:07;6.50;;;5.68;;
57389;SDS011;43217;52.694;6.214;2023-05-10T08:23:33;6.35;;;5.72;;
57389;SDS011;43217;52.694;6.214;2023-05-10T08:25:58;5.88;;;5.28;;
57389;SDS011;43217;52.694;6.214;2023-05-10T08:28:25;6.47;;;5.75;;
57389;SDS011;43217;52.694;6.214;2023-05-10T08:30:50;5.90;;;5.30;;
57389;SDS011;43217;52.694;6.214;2023-05-10T08:33:19;5.68;;;5.15;;
57389;SDS011;43217;52.694;6.214;2023-05-10T08:35:45;7.32;;;5.90;;
57389;SDS011;43217;52.694;6.214;2023-05-10T08:38:10;7.20;;;6.50;;
57389;SDS011;43217;52.694;6.214;2023-05-10T08:40:37;7.00;;;6.28;;
57389;SDS011;43217;52.694;6.214;2023-05-10T08:43:07;6.93;;;6.22;;
57389;SDS011;43217;52.694;6.214;2023-05-10T08:45:36;7.25;;;6.55;;
57389;SDS011;43217;52.694;6.214;2023-05-10T08:48:05;6.38;;;5.65;;
57389;SDS011;43217;52.694;6.214;2023-05-10T08:50:32;6.13;;;5.35;;
57389;SDS011;43217;52.694;6.214;2023-05-10T08:53:04;6.68;;;5.55;;
57389;SDS011;43217;52.694;6.214;2023-05-10T08:55:40;6.38;;;5.78;;
57389;SDS011;43217;52.694;6.214;2023-05-10T08:58:07;6.22;;;5.63;;
57389;SDS011;43217;52.694;6.214;2023-05-10T09:00:34;6.65;;;6.00;;
57389;SDS011;43217;52.694;6.214;2023-05-10T09:03:01;5.90;;;5.40;;
57389;SDS011;43217;52.694;6.214;2023-05-10T09:05:27;7.90;;;6.55;;
57389;SDS011;43217;52.694;6.214;2023-05-10T09:07:53;8.60;;;7.38;;
57389;SDS011;43217;52.694;6.214;2023-05-10T09:10:19;7.93;;;7.13;;
57389;SDS011;43217;52.694;6.214;2023-05-10T09:12:45;9.50;;;7.50;;
57389;SDS011;43217;52.694;6.214;2023-05-10T09:15:16;9.00;;;8.10;;
57389;SDS011;43217;52.694;6.214;2023-05-10T09:17:45;9.88;;;8.50;;
57389;SDS011;43217;52.694;6.214;2023-05-10T09:20:14;9.55;;;8.63;;
57389;SDS011;43217;52.694;6.214;2023-05-10T09:22:39;10.15;;;9.07;;
57389;SDS011;43217;52.694;6.214;2023-05-10T09:27:35;9.70;;;8.52;;
57389;SDS011;43217;52.694;6.214;2023-05-10T09:30:02;9.63;;;8.15;;
57389;SDS011;43217;52.694;6.214;2023-05-10T09:32:41;10.18;;;9.10;;
57389;SDS011;43217;52.694;6.214;2023-05-10T09:35:16;9.27;;;8.38;;
57389;SDS011;43217;52.694;6.214;2023-05-10T09:37:48;10.02;;;9.02;;
57389;SDS011;43217;52.694;6.214;2023-05-10T09:40:23;9.75;;;8.40;;
57389;SDS011;43217;52.694;6.214;2023-05-10T09:43:03;10.45;;;9.30;;
57389;SDS011;43217;52.694;6.214;2023-05-10T09:45:31;10.30;;;9.30;;
57389;SDS011;43217;52.694;6.214;2023-05-10T09:47:59;11.98;;;10.23;;
57389;SDS011;43217;52.694;6.214;2023-05-10T09:50:26;10.80;;;9.70;;
57389;SDS011;43217;52.694;6.214;2023-05-10T09:52:57;10.70;;;9.55;;
57389;SDS011;43217;52.694;6.214;2023-05-10T09:55:40;11.57;;;10.48;;
57389;SDS011;43217;52.694;6.214;2023-05-10T09:58:09;11.50;;;10.30;;
57389;SDS011;43217;52.694;6.214;2023-05-10T10:00:39;11.38;;;10.25;;
57389;SDS011;43217;52.694;6.214;2023-05-10T10:03:07;11.32;;;10.30;;
57389;SDS011;43217;52.694;6.214;2023-05-10T10:05:39;10.90;;;9.80;;
57389;SDS011;43217;52.694;6.214;2023-05-10T10:08:06;10.73;;;9.63;;
57389;SDS011;43217;52.694;6.214;2023-05-10T10:10:32;11.70;;;10.43;;
57389;SDS011;43217;52.694;6.214;2023-05-10T10:12:58;10.95;;;9.85;;
57389;SDS011;43217;52.694;6.214;2023-05-10T10:15:24;10.75;;;9.65;;
57389;SDS011;43217;52.694;6.214;2023-05-10T10:17:51;11.43;;;10.23;;
57389;SDS011;43217;52.694;6.214;2023-05-10T10:20:18;11.02;;;9.95;;
57389;SDS011;43217;52.694;6.214;2023-05-10T10:22:45;12.13;;;10.82;;
57389;SDS011;43217;52.694;6.214;2023-05-10T10:25:12;11.98;;;10.60;;
57389;SDS011;43217;52.694;6.214;2023-05-10T10:30:21;11.80;;;10.70;;
57389;SDS011;43217;52.694;6.214;2023-05-10T10:35:58;11.60;;;10.40;;
57389;SDS011;43217;52.694;6.214;2023-05-10T10:38:25;11.75;;;10.52;;
57389;SDS011;43217;52.694;6.214;2023-05-10T10:41:06;11.27;;;10.15;;
57389;SDS011;43217;52.694;6.214;2023-05-10T10:44:13;16.52;;;11.10;;
57389;SDS011;43217;52.694;6.214;2023-05-10T10:47:22;11.90;;;10.63;;
57389;SDS011;43217;52.694;6.214;2023-05-10T10:52:36;10.43;;;9.30;;
57389;SDS011;43217;52.694;6.214;2023-05-10T10:55:08;12.48;;;9.95;;
57389;SDS011;43217;52.694;6.214;2023-05-10T11:05:43;11.82;;;10.40;;
57389;SDS011;43217;52.694;6.214;2023-05-10T11:10:49;13.68;;;11.73;;
57389;SDS011;43217;52.694;6.214;2023-05-10T11:13:30;14.27;;;12.23;;
57389;SDS011;43217;52.694;6.214;2023-05-10T11:15:56;14.43;;;12.35;;
57389;SDS011;43217;52.694;6.214;2023-05-10T11:20:58;12.52;;;11.23;;
57389;SDS011;43217;52.694;6.214;2023-05-10T11:23:31;12.10;;;10.93;;
57389;SDS011;43217;52.694;6.214;2023-05-10T11:25:58;14.02;;;12.40;;
57389;SDS011;43217;52.694;6.214;2023-05-10T11:28:26;13.15;;;11.77;;
57389;SDS011;43217;52.694;6.214;2023-05-10T11:30:52;13.23;;;11.40;;
57389;SDS011;43217;52.694;6.214;2023-05-10T11:33:18;12.15;;;10.95;;
57389;SDS011;43217;52.694;6.214;2023-05-10T11:35:45;12.45;;;10.93;;
57389;SDS011;43217;52.694;6.214;2023-05-10T11:38:12;12.38;;;11.18;;
57389;SDS011;43217;52.694;6.214;2023-05-10T11:40:38;13.38;;;10.10;;
57389;SDS011;43217;52.694;6.214;2023-05-10T11:43:05;13.98;;;11.15;;
57389;SDS011;43217;52.694;6.214;2023-05-10T11:45:34;12.18;;;10.90;;
57389;SDS011;43217;52.694;6.214;2023-05-10T11:48:00;11.60;;;10.30;;
57389;SDS011;43217;52.694;6.214;2023-05-10T11:50:28;11.43;;;10.23;;
57389;SDS011;43217;52.694;6.214;2023-05-10T11:52:54;11.88;;;10.43;;
57389;SDS011;43217;52.694;6.214;2023-05-10T11:55:21;10.80;;;9.68;;
57389;SDS011;43217;52.694;6.214;2023-05-10T11:57:47;10.13;;;9.13;;
57389;SDS011;43217;52.694;6.214;2023-05-10T12:00:21;10.13;;;9.05;;
57389;SDS011;43217;52.694;6.214;2023-05-10T12:02:47;10.00;;;9.05;;
57389;SDS011;43217;52.694;6.214;2023-05-10T12:05:18;10.75;;;9.65;;
57389;SDS011;43217;52.694;6.214;2023-05-10T12:07:45;11.13;;;10.13;;
57389;SDS011;43217;52.694;6.214;2023-05-10T12:10:11;10.52;;;9.52;;
57389;SDS011;43217;52.694;6.214;2023-05-10T12:12:43;9.77;;;8.77;;
57389;SDS011;43217;52.694;6.214;2023-05-10T12:15:11;9.40;;;8.50;;
57389;SDS011;43217;52.694;6.214;2023-05-10T12:17:47;10.80;;;9.70;;
57389;SDS011;43217;52.694;6.214;2023-05-10T12:20:18;10.27;;;9.27;;
57389;SDS011;43217;52.694;6.214;2023-05-10T12:22:55;10.45;;;8.98;;
57389;SDS011;43217;52.694;6.214;2023-05-10T12:25:23;10.40;;;9.30;;
57389;SDS011;43217;52.694;6.214;2023-05-10T12:27:53;12.68;;;10.52;;
57389;SDS011;43217;52.694;6.214;2023-05-10T12:30:24;11.30;;;10.02;;
57389;SDS011;43217;52.694;6.214;2023-05-10T12:32:51;11.05;;;9.95;;
57389;SDS011;43217;52.694;6.214;2023-05-10T12:35:17;10.95;;;9.80;;
57389;SDS011;43217;52.694;6.214;2023-05-10T12:37:46;9.27;;;8.38;;
57389;SDS011;43217;52.694;6.214;2023-05-10T12:40:13;11.00;;;9.80;;
57389;SDS011;43217;52.694;6.214;2023-05-10T12:42:39;9.75;;;8.85;;
57389;SDS011;43217;52.694;6.214;2023-05-10T12:45:05;12.27;;;8.90;;
57389;SDS011;43217;52.694;6.214;2023-05-10T12:47:32;10.15;;;9.15;;
57389;SDS011;43217;52.694;6.214;2023-05-10T12:49:59;10.02;;;8.73;;
57389;SDS011;43217;52.694;6.214;2023-05-10T12:52:25;10.57;;;9.45;;
57389;SDS011;43217;52.694;6.214;2023-05-10T12:54:51;9.60;;;8.68;;
57389;SDS011;43217;52.694;6.214;2023-05-10T12:57:18;9.88;;;8.88;;
57389;SDS011;43217;52.694;6.214;2023-05-10T12:59:45;9.65;;;8.40;;
57389;SDS011;43217;52.694;6.214;2023-05-10T13:02:10;9.43;;;8.45;;
57389;SDS011;43217;52.694;6.214;2023-05-10T13:04:36;9.52;;;8.48;;
57389;SDS011;43217;52.694;6.214;2023-05-10T13:07:07;10.25;;;9.25;;
57389;SDS011;43217;52.694;6.214;2023-05-10T13:09:34;11.60;;;9.68;;
57389;SDS011;43217;52.694;6.214;2023-05-10T13:11:59;11.25;;;9.50;;
57389;SDS011;43217;52.694;6.214;2023-05-10T13:14:25;12.07;;;9.80;;
57389;SDS011;43217;52.694;6.214;2023-05-10T13:16:51;11.68;;;9.77;;
57389;SDS011;43217;52.694;6.214;2023-05-10T13:19:18;11.50;;;10.30;;
57389;SDS011;43217;52.694;6.214;2023-05-10T13:21:43;12.82;;;11.00;;
57389;SDS011;43217;52.694;6.214;2023-05-10T13:24:09;11.95;;;10.30;;
57389;SDS011;43217;52.694;6.214;2023-05-10T13:26:38;12.95;;;10.95;;
57389;SDS011;43217;52.694;6.214;2023-05-10T13:29:05;13.57;;;11.25;;
57389;SDS011;43217;52.694;6.214;2023-05-10T13:31:30;12.98;;;11.13;;
57389;SDS011;43217;52.694;6.214;2023-05-10T13:33:56;11.35;;;9.85;;
57389;SDS011;43217;52.694;6.214;2023-05-10T13:36:22;12.18;;;10.50;;
57389;SDS011;43217;52.694;6.214;2023-05-10T13:38:47;10.98;;;9.65;;
57389;SDS011;43217;52.694;6.214;2023-05-10T13:41:13;11.35;;;10.25;;
57389;SDS011;43217;52.694;6.214;2023-05-10T13:43:39;12.73;;;10.52;;
57389;SDS011;43217;52.694;6.214;2023-05-10T13:46:05;13.18;;;10.20;;
57389;SDS011;43217;52.694;6.214;2023-05-10T13:48:31;11.30;;;9.93;;
57389;SDS011;43217;52.694;6.214;2023-05-10T13:50:56;12.43;;;10.13;;
57389;SDS011;43217;52.694;6.214;2023-05-10T13:53:22;11.23;;;9.93;;
57389;SDS011;43217;52.694;6.214;2023-05-10T13:55:48;11.80;;;10.52;;
57389;SDS011;43217;52.694;6.214;2023-05-10T13:58:14;11.23;;;9.40;;
57389;SDS011;43217;52.694;6.214;2023-05-10T14:00:40;11.85;;;10.25;;
57389;SDS011;43217;52.694;6.214;2023-05-10T14:03:05;11.05;;;9.82;;
57389;SDS011;43217;52.694;6.214;2023-05-10T14:05:32;11.75;;;8.68;;
57389;SDS011;43217;52.694;6.214;2023-05-10T14:07:57;9.75;;;8.75;;
57389;SDS011;43217;52.694;6.214;2023-05-10T14:10:23;9.35;;;8.05;;
57389;SDS011;43217;52.694;6.214;2023-05-10T14:12:51;9.15;;;8.18;;
57389;SDS011;43217;52.694;6.214;2023-05-10T14:15:16;9.90;;;7.85;;
57389;SDS011;43217;52.694;6.214;2023-05-10T14:17:42;10.60;;;8.55;;
57389;SDS011;43217;52.694;6.214;2023-05-10T14:20:08;10.07;;;9.02;;
57389;SDS011;43217;52.694;6.214;2023-05-10T14:22:34;9.48;;;8.10;;
57389;SDS011;43217;52.694;6.214;2023-05-10T14:25:00;10.05;;;8.50;;
57389;SDS011;43217;52.694;6.214;2023-05-10T14:27:26;8.35;;;7.55;;
57389;SDS011;43217;52.694;6.214;2023-05-10T14:29:51;8.50;;;7.40;;
57389;SDS011;43217;52.694;6.214;2023-05-10T14:32:18;9.25;;;7.25;;
57389;SDS011;43217;52.694;6.214;2023-05-10T14:34:43;8.07;;;7.15;;
57389;SDS011;43217;52.694;6.214;2023-05-10T14:37:10;7.95;;;7.15;;
57389;SDS011;43217;52.694;6.214;2023-05-10T14:39:36;10.20;;;7.60;;
57389;SDS011;43217;52.694;6.214;2023-05-10T14:42:02;8.15;;;7.35;;
57389;SDS011;43217;52.694;6.214;2023-05-10T14:44:28;8.43;;;7.35;;
57389;SDS011;43217;52.694;6.214;2023-05-10T14:46:54;9.30;;;8.30;;
57389;SDS011;43217;52.694;6.214;2023-05-10T14:49:21;8.82;;;7.55;;
57389;SDS011;43217;52.694;6.214;2023-05-10T14:51:47;7.88;;;7.18;;
57389;SDS011;43217;52.694;6.214;2023-05-10T14:54:13;9.15;;;7.65;;
57389;SDS011;43217;52.694;6.214;2023-05-10T14:56:39;9.13;;;8.23;;
57389;SDS011;43217;52.694;6.214;2023-05-10T14:59:06;7.85;;;7.05;;
57389;SDS011;43217;52.694;6.214;2023-05-10T15:01:32;8.30;;;7.60;;
57389;SDS011;43217;52.694;6.214;2023-05-10T15:03:59;7.78;;;7.03;;
57389;SDS011;43217;52.694;6.214;2023-05-10T15:06:32;7.60;;;6.80;;
57389;SDS011;43217;52.694;6.214;2023-05-10T15:08:59;6.50;;;5.60;;
57389;SDS011;43217;52.694;6.214;2023-05-10T15:11:25;5.82;;;5.22;;
57389;SDS011;43217;52.694;6.214;2023-05-10T15:13:51;6.38;;;4.97;;
57389;SDS011;43217;52.694;6.214;2023-05-10T15:16:17;5.10;;;4.47;;
57389;SDS011;43217;52.694;6.214;2023-05-10T15:18:43;6.45;;;4.68;;
57389;SDS011;43217;52.694;6.214;2023-05-10T15:21:09;6.82;;;4.80;;
57389;SDS011;43217;52.694;6.214;2023-05-10T15:23:35;5.13;;;4.57;;
57389;SDS011;43217;52.694;6.214;2023-05-10T15:26:01;6.35;;;5.75;;
57389;SDS011;43217;52.694;6.214;2023-05-10T15:28:27;6.15;;;5.18;;
57389;SDS011;43217;52.694;6.214;2023-05-10T15:30:53;7.40;;;5.45;;
57389;SDS011;43217;52.694;6.214;2023-05-10T15:33:19;7.00;;;6.10;;
57389;SDS011;43217;52.694;6.214;2023-05-10T15:35:44;6.20;;;5.60;;